createdAt,value
2022-11-20T00:01:37.872Z,71.75
2022-11-20T00:04:41.205Z,69.20
2022-11-20T00:07:44.690Z,69.50
2022-11-20T00:10:49.523Z,76.40
2022-11-20T00:13:54.217Z,72.20
2022-11-20T00:16:57.434Z,73.00
2022-11-20T00:20:00.649Z,74.20
2022-11-20T00:23:04.004Z,73.00
2022-11-20T00:26:11.070Z,75.00
2022-11-20T00:29:14.354Z,70.00
2022-11-20T00:32:17.824Z,72.80
2022-11-20T00:35:21.285Z,73.20
2022-11-20T00:38:24.764Z,69.67
2022-11-20T00:41:30.727Z,72.40
2022-11-20T00:44:33.989Z,71.00
2022-11-20T00:47:37.239Z,73.60
2022-11-20T00:50:41.473Z,74.80
2022-11-20T00:53:45.495Z,71.80
2022-11-20T00:56:50.383Z,74.50
2022-11-20T00:59:53.874Z,73.20
2022-11-20T01:02:58.120Z,72.00
2022-11-20T01:06:04.596Z,74.25
2022-11-20T01:09:10.309Z,76.60
2022-11-20T01:12:14.964Z,75.00
2022-11-20T01:15:18.365Z,72.00
2022-11-20T01:18:21.932Z,74.00
2022-11-20T01:21:27.025Z,72.80
2022-11-20T01:24:30.160Z,76.00
2022-11-20T01:27:34.835Z,71.40
2022-11-20T01:30:38.178Z,75.40
2022-11-20T01:33:42.141Z,72.60
2022-11-20T01:36:46.334Z,72.20
2022-11-20T01:39:49.914Z,71.50
2022-11-20T01:43:23.188Z,72.33
2022-11-20T01:46:26.798Z,68.75
2022-11-20T01:49:36.796Z,70.80
2022-11-20T01:52:44.843Z,68.00
2022-11-20T01:55:52.390Z,73.00
2022-11-20T01:59:01.972Z,74.40
2022-11-20T02:02:05.175Z,70.80
2022-11-20T02:05:20.148Z,75.00
2022-11-20T02:08:25.587Z,71.25
2022-11-20T02:11:29.389Z,72.00
2022-11-20T02:14:33.001Z,75.40
2022-11-20T02:17:36.311Z,72.60
2022-11-20T02:20:40.632Z,75.00
2022-11-20T02:24:04.680Z,71.60
2022-11-20T02:27:11.334Z,70.00
2022-11-20T02:30:14.856Z,70.40
2022-11-20T02:33:18.396Z,70.50
2022-11-20T02:36:21.769Z,73.80
2022-11-20T02:39:29.749Z,69.00
2022-11-20T02:42:32.954Z,73.00
2022-11-20T02:45:36.260Z,72.60
2022-11-20T02:48:39.439Z,69.40
2022-11-20T02:51:42.654Z,72.80
2022-11-20T02:54:47.314Z,69.60
2022-11-20T02:57:50.677Z,71.40
2022-11-20T03:00:54.973Z,69.67
2022-11-20T03:03:58.337Z,71.20
2022-11-20T03:07:02.019Z,72.80
2022-11-20T03:10:08.714Z,71.00
2022-11-20T03:13:12.040Z,73.00
2022-11-20T03:16:17.822Z,70.00
2022-11-20T03:19:21.710Z,70.00
2022-11-20T03:22:25.268Z,70.25
2022-11-20T03:25:30.295Z,72.60
2022-11-20T03:28:33.521Z,72.00
2022-11-20T03:31:41.736Z,72.00
2022-11-20T03:34:45.320Z,72.80
2022-11-20T03:37:49.448Z,70.60
2022-11-20T03:41:00.008Z,71.75
2022-11-20T03:44:05.685Z,75.40
2022-11-20T03:47:09.170Z,70.50
2022-11-20T03:50:14.606Z,73.00
2022-11-20T03:53:18.371Z,71.40
2022-11-20T03:56:26.309Z,71.50
2022-11-20T03:59:29.510Z,70.60
2022-11-20T04:02:32.965Z,72.60
2022-11-20T04:05:36.326Z,69.75
2022-11-20T04:08:40.150Z,72.00
2022-11-20T04:11:45.355Z,75.00
2022-11-20T04:14:48.600Z,72.50
2022-11-20T04:17:52.301Z,73.00
2022-11-20T04:20:55.539Z,72.20
2022-11-20T04:23:59.540Z,72.60
2022-11-20T04:27:04.319Z,74.00
2022-11-20T04:30:08.980Z,69.25
2022-11-20T04:33:12.243Z,70.20
2022-11-20T04:36:17.638Z,69.25
2022-11-20T04:39:21.233Z,70.20
2022-11-20T04:42:31.923Z,72.40
2022-11-20T04:45:35.227Z,71.60
2022-11-20T04:48:38.460Z,67.40
2022-11-20T04:51:42.340Z,72.20
2022-11-20T04:54:45.522Z,70.00
2022-11-20T04:57:52.238Z,72.40
2022-11-20T05:00:55.563Z,70.00
2022-11-20T05:03:59.116Z,70.00
2022-11-20T05:07:02.385Z,66.80
2022-11-20T05:10:06.467Z,71.50
2022-11-20T05:13:11.242Z,70.20
2022-11-20T05:16:16.638Z,72.00
2022-11-20T05:19:20.498Z,70.60
2022-11-20T05:22:23.863Z,69.20
2022-11-20T05:25:27.477Z,70.80
2022-11-20T05:28:33.247Z,69.00
2022-11-20T05:31:37.247Z,71.25
2022-11-20T05:34:40.779Z,70.00
2022-11-20T05:37:44.322Z,68.60
2022-11-20T05:40:47.535Z,67.50
2022-11-20T05:43:52.926Z,71.20
2022-11-20T05:46:56.095Z,71.80
2022-11-20T05:49:59.967Z,71.00
2022-11-20T05:53:03.579Z,72.75
2022-11-20T05:56:11.876Z,73.00
2022-11-20T05:59:17.092Z,68.00
2022-11-20T06:02:20.472Z,71.75
2022-11-20T06:05:23.912Z,71.20
2022-11-20T06:08:27.200Z,76.00
2022-11-20T06:11:30.410Z,75.00
2022-11-20T06:14:35.096Z,71.50
2022-11-20T06:17:38.388Z,70.00
2022-11-20T06:20:42.303Z,72.50
2022-11-20T06:23:46.682Z,72.80
2022-11-20T06:26:49.926Z,72.00
2022-11-20T06:29:54.555Z,73.00
2022-11-20T06:32:57.987Z,74.40
2022-11-20T06:36:07.222Z,72.75
2022-11-20T06:39:13.581Z,72.00
2022-11-20T06:42:16.847Z,73.25
2022-11-20T06:45:21.759Z,73.40
2022-11-20T06:48:26.122Z,71.75
2022-11-20T06:51:29.358Z,79.25
2022-11-20T06:54:32.571Z,80.60
2022-11-20T06:57:36.288Z,82.40
2022-11-20T07:00:41.722Z,87.40
2022-11-20T07:03:50.009Z,84.00
2022-11-20T07:06:56.348Z,86.75
2022-11-20T07:09:59.897Z,84.00
2022-11-20T07:13:03.209Z,87.20
2022-11-20T07:16:10.339Z,88.50
2022-11-20T07:19:13.660Z,87.00
2022-11-20T07:22:16.905Z,88.20
2022-11-20T07:25:20.070Z,88.75
2022-11-20T07:28:23.260Z,79.50
2022-11-20T07:31:27.923Z,81.00
2022-11-20T07:34:31.131Z,85.00
2022-11-20T07:37:36.788Z,89.00
2022-11-20T07:40:40.068Z,90.20
2022-11-20T07:43:43.314Z,89.40
2022-11-20T07:46:47.863Z,83.00
2022-11-20T07:49:51.007Z,83.75
2022-11-20T07:52:54.399Z,82.40
2022-11-20T07:56:01.924Z,79.00
2022-11-20T07:59:05.657Z,84.50
2022-11-20T08:02:13.072Z,83.20
2022-11-20T08:05:16.935Z,83.00
2022-11-20T08:08:20.750Z,83.75
2022-11-20T08:11:41.799Z,80.20
2022-11-20T08:14:45.001Z,82.60
2022-11-20T08:18:15.348Z,79.25
2022-11-20T08:21:12.849Z,79.40
2022-11-20T08:24:16.119Z,81.40
2022-11-20T08:27:19.347Z,83.00
2022-11-20T08:30:22.729Z,84.25
2022-11-20T08:33:27.431Z,78.40
2022-11-20T08:36:31.026Z,79.40
2022-11-20T08:39:34.235Z,76.40
2022-11-20T08:42:37.498Z,78.20
2022-11-20T08:45:40.765Z,77.00
2022-11-20T08:48:46.398Z,76.25
2022-11-20T08:51:52.796Z,76.40
2022-11-20T08:54:55.964Z,76.00
2022-11-20T08:57:59.209Z,77.40
2022-11-20T09:01:02.558Z,77.50
2022-11-20T09:04:07.519Z,78.20
2022-11-20T09:07:10.770Z,75.60
2022-11-20T09:10:24.172Z,76.60
2022-11-20T09:13:29.909Z,77.40
2022-11-20T09:16:33.112Z,76.75
2022-11-20T09:19:37.845Z,77.00
2022-11-20T09:22:42.450Z,77.40
2022-11-20T09:25:46.200Z,79.60
2022-11-20T09:28:52.831Z,80.40
2022-11-20T09:31:58.680Z,79.25
2022-11-20T09:35:03.370Z,79.40
2022-11-20T09:38:08.559Z,78.00
2022-11-20T09:41:33.250Z,77.60
2022-11-20T09:44:54.840Z,76.40
2022-11-20T09:48:26.044Z,78.25
2022-11-20T09:51:43.012Z,75.00
2022-11-20T09:54:46.620Z,77.67
2022-11-20T09:57:53.113Z,76.00
2022-11-20T10:00:59.733Z,75.20
2022-11-20T10:04:05.976Z,76.40
2022-11-20T10:07:31.931Z,79.80
2022-11-20T10:10:43.949Z,78.20
2022-11-20T10:13:55.536Z,77.25
2022-11-20T10:17:10.547Z,79.00
2022-11-20T10:20:22.028Z,78.40
2022-11-20T10:23:46.944Z,78.50
2022-11-20T10:27:00.762Z,78.40
2022-11-20T10:30:10.354Z,77.20
2022-11-20T10:33:19.350Z,78.20
2022-11-20T10:36:28.344Z,77.20
2022-11-20T10:39:41.401Z,78.80
2022-11-20T10:42:47.358Z,76.60
2022-11-20T10:45:56.299Z,76.00
2022-11-20T10:48:59.540Z,77.00
2022-11-20T10:52:13.593Z,77.40
2022-11-20T10:55:30.101Z,80.25
2022-11-20T10:58:43.729Z,75.00
2022-11-20T11:01:46.979Z,76.25
2022-11-20T11:04:52.111Z,77.00
2022-11-20T11:07:58.537Z,79.00
2022-11-20T11:11:11.666Z,77.60
2022-11-20T11:14:17.367Z,78.40
2022-11-20T11:17:24.980Z,78.00
2022-11-20T11:20:28.951Z,74.25
2022-11-20T11:23:35.516Z,81.00
2022-11-20T11:26:40.776Z,76.40
2022-11-20T11:29:44.058Z,77.00
2022-11-20T11:32:47.528Z,78.60
2022-11-20T11:35:53.805Z,77.60
2022-11-20T11:38:57.138Z,79.20
2022-11-20T11:42:03.393Z,78.80
2022-11-20T11:45:09.121Z,76.75
2022-11-20T11:48:12.338Z,79.00
2022-11-20T11:51:22.480Z,80.00
2022-11-20T11:54:30.835Z,79.25
2022-11-20T11:57:43.902Z,79.00
2022-11-20T12:00:56.853Z,72.25
2022-11-20T12:04:07.095Z,77.00
2022-11-20T12:07:44.358Z,75.40
2022-11-20T12:10:47.443Z,78.00
2022-11-20T12:14:02.842Z,79.25
2022-11-20T12:17:06.693Z,78.20
2022-11-20T12:20:15.328Z,79.20
2022-11-20T12:23:26.793Z,81.75
2022-11-20T12:26:53.757Z,76.00
2022-11-20T12:30:04.272Z,80.40
2022-11-20T12:33:21.112Z,75.80
2022-11-20T12:36:33.789Z,78.40
2022-11-20T12:39:38.145Z,79.60
2022-11-20T12:43:10.278Z,76.00
2022-11-20T12:46:28.021Z,80.00
2022-11-20T12:49:40.189Z,78.80
2022-11-20T12:52:53.005Z,75.75
2022-11-20T12:56:06.755Z,75.00
2022-11-20T12:59:36.386Z,81.20
2022-11-20T13:02:59.660Z,83.00
2022-11-20T13:06:12.512Z,78.00
2022-11-20T13:09:19.091Z,75.50
2022-11-20T13:12:30.988Z,78.40
2022-11-20T13:15:47.302Z,82.40
2022-11-20T13:18:52.070Z,79.40
2022-11-20T13:21:55.400Z,88.40
2022-11-20T13:24:58.786Z,79.80
2022-11-20T13:28:05.646Z,83.60
2022-11-20T13:31:31.363Z,80.80
2022-11-20T13:34:37.093Z,79.25
2022-11-20T13:37:40.590Z,77.00
2022-11-20T13:40:53.834Z,76.25
2022-11-20T13:44:03.116Z,77.00
2022-11-20T13:47:22.860Z,76.75
2022-11-20T13:50:42.790Z,79.40
2022-11-20T13:54:02.972Z,77.60
2022-11-20T13:57:24.753Z,81.60
2022-11-20T14:00:28.177Z,80.60
2022-11-20T14:04:04.431Z,80.25
2022-11-20T14:07:01.211Z,80.40
2022-11-20T14:10:04.802Z,78.20
2022-11-20T14:13:19.777Z,78.20
2022-11-20T14:16:23.049Z,83.20
2022-11-20T14:19:31.777Z,77.25
2022-11-20T14:22:36.607Z,78.40
2022-11-20T14:25:44.807Z,77.20
2022-11-20T14:28:51.384Z,78.00
2022-11-20T14:31:56.630Z,79.80
2022-11-20T14:35:09.247Z,80.60
2022-11-20T14:38:16.225Z,78.00
2022-11-20T14:41:20.986Z,77.80
2022-11-20T14:44:30.114Z,77.00
2022-11-20T14:47:34.287Z,84.80
2022-11-20T14:50:38.105Z,78.60
2022-11-20T14:53:42.762Z,87.00
2022-11-20T14:56:56.249Z,77.60
2022-11-20T15:00:08.251Z,84.75
2022-11-20T15:03:18.370Z,78.40
2022-11-20T15:06:28.588Z,85.00
2022-11-20T15:09:33.360Z,83.00
2022-11-20T15:12:40.280Z,89.80
2022-11-20T15:15:48.936Z,90.80
2022-11-20T15:18:53.125Z,95.00
2022-11-20T15:21:57.092Z,91.60
2022-11-20T15:25:01.903Z,98.20
2022-11-20T15:28:10.966Z,95.00
2022-11-20T15:31:15.472Z,101.40
2022-11-20T15:34:19.203Z,93.00
2022-11-20T15:37:26.009Z,100.40
2022-11-20T15:40:34.622Z,99.00
2022-11-20T15:43:37.886Z,97.25
2022-11-20T15:46:45.705Z,106.33
2022-11-20T15:49:49.100Z,100.00
2022-11-20T15:52:52.680Z,103.60
2022-11-20T15:55:57.259Z,101.00
2022-11-20T15:59:00.521Z,104.00
2022-11-20T16:02:03.798Z,102.20
2022-11-20T16:05:13.124Z,106.00
2022-11-20T16:08:17.064Z,102.25
2022-11-20T16:11:21.800Z,96.20
2022-11-20T16:14:42.555Z,98.00
2022-11-20T16:17:45.768Z,94.40
2022-11-20T16:20:50.973Z,93.20
2022-11-20T16:23:54.346Z,88.60
2022-11-20T16:26:59.620Z,87.60
2022-11-20T16:30:02.905Z,90.00
2022-11-20T16:33:06.584Z,93.60
2022-11-20T16:36:14.244Z,89.00
2022-11-20T16:39:23.093Z,95.60
2022-11-20T16:42:28.454Z,94.40
2022-11-20T16:45:34.069Z,89.60
2022-11-20T16:48:37.499Z,91.00
2022-11-20T16:51:41.287Z,90.80
2022-11-20T16:54:44.549Z,100.40
2022-11-20T16:57:49.225Z,93.80
2022-11-20T17:00:52.713Z,93.20
2022-11-20T17:03:57.752Z,93.20
2022-11-20T17:07:07.525Z,87.00
2022-11-20T17:10:11.290Z,94.20
2022-11-20T17:13:17.451Z,98.00
2022-11-20T17:16:23.605Z,91.00
2022-11-20T17:19:27.055Z,94.75
2022-11-20T17:22:30.332Z,93.00
2022-11-20T17:25:34.792Z,95.00
2022-11-20T17:28:40.877Z,88.33
2022-11-20T17:31:44.615Z,95.00
2022-11-20T17:34:47.987Z,91.00
2022-11-20T17:37:51.262Z,89.40
2022-11-20T17:40:54.535Z,91.00
2022-11-20T17:44:02.219Z,93.20
2022-11-20T17:47:05.588Z,91.00
2022-11-20T17:50:10.511Z,95.25
2022-11-20T17:53:13.804Z,90.60
2022-11-20T17:56:35.670Z,93.80
2022-11-20T17:59:40.782Z,87.60
2022-11-20T18:02:44.074Z,90.60
2022-11-20T18:05:47.452Z,93.33
2022-11-20T18:08:51.699Z,95.60
2022-11-20T18:11:54.967Z,95.60
2022-11-20T18:14:59.618Z,93.40
2022-11-20T18:18:02.799Z,95.00
2022-11-20T18:21:06.332Z,100.00
2022-11-20T18:24:10.261Z,93.00
2022-11-20T18:27:17.202Z,105.00
2022-11-20T18:30:21.949Z,110.60
2022-11-20T18:33:28.389Z,104.80
2022-11-20T18:36:33.598Z,103.40
2022-11-20T18:39:37.104Z,109.80
2022-11-20T18:42:57.598Z,101.20
2022-11-20T18:46:05.723Z,102.40
2022-11-20T18:49:09.084Z,102.40
2022-11-20T18:52:13.230Z,100.50
2022-11-20T18:55:16.517Z,99.00
2022-11-20T18:58:20.401Z,90.60
2022-11-20T19:01:25.136Z,104.25
2022-11-20T19:04:29.749Z,101.00
2022-11-20T19:07:33.088Z,103.00
2022-11-20T19:10:37.651Z,103.50
2022-11-20T19:13:41.796Z,101.20
2022-11-20T19:16:46.415Z,100.80
2022-11-20T19:19:50.616Z,103.75
2022-11-20T19:22:54.294Z,97.20
2022-11-20T19:26:00.464Z,98.00
2022-11-20T19:29:04.439Z,100.20
2022-11-20T19:32:09.091Z,101.60
2022-11-20T19:35:13.449Z,96.50
2022-11-20T19:38:16.622Z,99.00
2022-11-20T19:41:22.648Z,96.50
2022-11-20T19:44:25.822Z,103.00
2022-11-20T19:47:53.095Z,106.60
2022-11-20T19:50:53.841Z,97.60
2022-11-20T19:53:58.090Z,100.00
2022-11-20T19:57:01.315Z,93.00
2022-11-20T20:00:05.743Z,97.40
2022-11-20T20:03:10.780Z,100.80
2022-11-20T20:06:15.784Z,107.50
2022-11-20T20:09:19.023Z,105.00
2022-11-20T20:12:22.330Z,103.00
2022-11-20T20:15:25.625Z,99.00
2022-11-20T20:18:30.210Z,107.20
2022-11-20T20:21:35.347Z,103.00
2022-11-20T20:24:38.590Z,102.25
2022-11-20T20:27:41.775Z,105.00
2022-11-20T20:30:45.411Z,100.00
2022-11-20T20:33:49.982Z,116.75
2022-11-20T20:36:53.378Z,98.80
2022-11-20T20:39:56.628Z,96.00
2022-11-20T20:42:59.868Z,103.00
2022-11-20T20:46:03.432Z,104.00
2022-11-20T20:49:08.507Z,103.67
2022-11-20T20:52:11.789Z,102.50
2022-11-20T20:55:15.486Z,97.60
2022-11-20T20:58:18.761Z,103.50
2022-11-20T21:01:22.850Z,96.60
2022-11-20T21:04:27.635Z,100.00
2022-11-20T21:07:30.881Z,98.60
2022-11-20T21:10:35.240Z,102.60
2022-11-20T21:13:39.959Z,106.60
2022-11-20T21:16:44.098Z,99.60
2022-11-20T21:19:48.763Z,100.40
2022-11-20T21:22:50.984Z,96.00
2022-11-20T21:25:54.300Z,95.60
2022-11-20T21:28:58.763Z,90.40
2022-11-20T21:32:02.090Z,94.25
2022-11-20T21:35:07.729Z,98.60
2022-11-20T21:38:11.010Z,99.00
2022-11-20T21:41:16.157Z,99.25
2022-11-20T21:44:34.571Z,97.00
2022-11-20T21:47:37.877Z,98.20
2022-11-20T21:50:43.017Z,101.40
2022-11-20T21:53:47.911Z,97.00
2022-11-20T21:56:51.515Z,100.40
2022-11-20T21:59:54.856Z,101.00
2022-11-20T22:02:58.319Z,94.00
2022-11-20T22:06:02.894Z,93.00
2022-11-20T22:09:06.223Z,95.40
2022-11-20T22:12:09.447Z,97.80
2022-11-20T22:15:11.645Z,90.60
2022-11-20T22:18:15.185Z,97.80
2022-11-20T22:21:22.243Z,91.00
2022-11-20T22:24:25.920Z,97.00
2022-11-20T22:27:29.331Z,95.00
2022-11-20T22:30:32.549Z,99.25
2022-11-20T22:33:37.042Z,95.00
2022-11-20T22:36:42.649Z,99.50
2022-11-20T22:39:45.944Z,97.00
2022-11-20T22:42:49.150Z,99.20
2022-11-20T22:45:52.430Z,115.20
2022-11-20T22:48:57.527Z,95.00
2022-11-20T22:52:02.469Z,104.00
2022-11-20T22:55:06.366Z,89.40
2022-11-20T22:58:09.594Z,90.40
2022-11-20T23:01:14.707Z,98.40
2022-11-20T23:04:18.124Z,93.25
2022-11-20T23:07:23.080Z,85.75
2022-11-20T23:10:26.670Z,93.00
2022-11-20T23:13:30.270Z,93.50
2022-11-20T23:16:35.028Z,93.00
2022-11-20T23:19:38.224Z,96.40
2022-11-20T23:22:42.841Z,87.40
2022-11-20T23:25:46.727Z,97.40
2022-11-20T23:28:50.009Z,84.25
2022-11-20T23:31:53.320Z,84.60
2022-11-20T23:34:56.580Z,85.80
2022-11-20T23:38:01.204Z,90.80
2022-11-20T23:41:05.306Z,104.80
2022-11-20T23:44:09.086Z,85.40
2022-11-20T23:47:12.304Z,98.50
2022-11-20T23:50:15.631Z,92.60
2022-11-20T23:53:20.995Z,93.60
2022-11-20T23:56:24.356Z,95.25
2022-11-20T23:59:27.595Z,97.60
